Aérodrome :
LOGIN :

S'inscrire | Disclaimer

   EN    FR    IT 

 










Légende :    VFR   VFR Marginal   IFR   IFR Intensif   IFR Très Intensif
Visi : 
Plafond : 
>= 8 km
>= 3000ft
5 à 8 km
1000 à 3000 ft
1500m à 5 km
500 à 1000 ft
800 à 1500m
200 à 500 ft
< 800m
< 200 ft
Symboles :   Orages  Brouillard  Fortes neiges  Fortes précipitations  Vent > 20 kt
SIGMETs :   Divers  Orages  Givrage  Turbulence  Onde Orograph.  Cendres Volcan.







- Altitude de l'aérodrome : 2945 ft
- Code IATA : RGS


LEBG - Burgos

DERNIER METAR :
  • 180600Z 03006KT CAVOK 01/M00 Q1022

METARs EXPIRÉS :
  • 180530Z AUTO VRB01KT 9999 NCD 02/00 Q1022
  • 180500Z AUTO 06004KT 030V090 9999 NCD 01/00 Q1022
  • 180430Z AUTO 08003KT 030V110 9999 NCD 02/00 Q1022
  • 180400Z AUTO 03006KT 9999 NCD 02/01 Q1022
  • 180330Z AUTO 04005KT 010V080 9999 NCD 02/01 Q1022

TAF TAF LEBG
Valide du 18 à 06h jusqu'au 18 à 15h UTC


180500Z 1806/1815 05006KT 9999 SCT016
PROB30
TEMPO 1806/1808 BKN007
Pas de NOTAMs connus pour ce terrain.



MET'MAP, la Météo Aéronautique d'un coup d'oeil ! - Copyright ORBIFLY Décembre 2007 - Disclaimer

ORBIFLY MET'MAP TEAM :

Programmation & Développement : Alexandra Zaïnal
Conception & Développement : Baudouin d'Aumeries
Co-Programmation & Développement : Marc-Olivier Méhu
Soutien technique & logistique : Manuel Goepfert

Contact : metmap@orbifly.com




SOURCES & CREDITS :

   NOAA